Time;durP1;ratioP1;P1;durP2;ratioP2;P2;SDS_P1;SDS_P2;PMS_P1;PMS_P2;Temp;Humidity;BMP_temperature;BMP_pressure;BME280_temperature;BME280_humidity;BME280_pressure;Samples;Min_cycle;Max_cycle;Signal;HPM_P1;HPM_P2
2022/03/29 00:01:25;;;;;;;;;9.00;8.25;;;;;17.50;33.26;97939.03;4835074;28;102411;-54
2022/03/29 00:03:52;;;;;;;;;6.75;6.00;;;;;17.51;32.72;97942.59;4825570;28;102172;-53
2022/03/29 00:06:19;;;;;;;;;8.00;7.75;;;;;17.50;32.73;97938.22;4837348;28;104054;-53
2022/03/29 00:08:47;;;;;;;;;7.00;5.75;;;;;17.49;33.12;97940.13;4812468;28;104060;-53
2022/03/29 00:11:14;;;;;;;;;9.25;8.00;;;;;17.50;32.28;97949.13;4834459;28;102799;-53
2022/03/29 00:13:41;;;;;;;;;9.00;9.00;;;;;17.39;33.14;97935.38;4831572;28;102677;-53
2022/03/29 00:16:09;;;;;;;;;8.25;6.75;;;;;17.49;33.35;97940.13;4835005;28;102690;-53
2022/03/29 00:18:36;;;;;;;;;7.75;7.25;;;;;17.49;32.82;97937.38;4846508;28;104077;-54
2022/03/29 00:21:03;;;;;;;;;8.50;7.00;;;;;17.48;33.35;97932.16;4835260;28;102605;-53
2022/03/29 00:23:30;;;;;;;;;8.50;7.50;;;;;17.48;33.19;97933.00;4835974;28;102465;-56
2022/03/29 00:25:58;;;;;;;;;7.00;7.00;;;;;17.47;32.78;97958.66;4834870;28;102593;-53
2022/03/29 00:28:25;;;;;;;;;8.00;6.25;;;;;17.47;33.14;97945.00;4824503;28;110293;-53
2022/03/29 00:30:52;;;;;;;;;8.25;6.75;;;;;17.46;33.35;97937.91;4835708;28;102429;-54
2022/03/29 00:33:21;;;;;;;;;7.00;7.00;;;;;17.46;32.92;97943.38;4813466;28;102648;-53
2022/03/29 00:35:48;;;;;;;;;8.25;8.00;;;;;17.47;32.95;97947.75;4832820;28;102340;-53
2022/03/29 00:38:16;;;;;;;;;8.50;7.50;;;;;17.46;33.39;97945.28;4830215;28;104195;-53
2022/03/29 00:40:43;;;;;;;;;9.00;7.25;;;;;17.47;32.82;97947.75;4830261;28;102507;-53
2022/03/29 00:43:10;;;;;;;;;8.00;6.25;;;;;17.44;32.73;97945.53;4832041;28;102555;-53
2022/03/29 00:45:37;;;;;;;;;11.00;8.00;;;;;17.46;33.08;97931.63;4830749;28;102164;-53
2022/03/29 00:48:08;;;;;;;;;7.25;7.00;;;;;17.46;33.54;97926.97;4836881;28;102863;-54
2022/03/29 00:50:36;;;;;;;;;9.00;9.00;;;;;17.44;33.74;97907.28;4826468;28;102418;-53
2022/03/29 00:53:03;;;;;;;;;9.75;7.75;;;;;17.44;32.52;97912.75;4851221;28;102200;-54
2022/03/29 00:55:31;;;;;;;;;9.50;7.00;;;;;17.44;32.84;97907.28;4835870;28;104956;-56
2022/03/29 00:57:59;;;;;;;;;9.00;7.50;;;;;17.45;32.37;97906.19;4847320;28;103087;-53
2022/03/29 01:00:27;;;;;;;;;7.00;7.00;;;;;17.44;32.54;97898.25;4834230;28;102431;-53
2022/03/29 01:02:54;;;;;;;;;11.50;7.50;;;;;17.43;33.40;97902.88;4824451;28;103745;-53
2022/03/29 01:05:21;;;;;;;;;6.00;5.75;;;;;17.43;33.16;97905.63;4829583;28;103818;-53
2022/03/29 01:07:48;;;;;;;;;6.00;5.75;;;;;17.36;32.90;97894.09;4820980;28;104097;-53
2022/03/29 01:10:16;;;;;;;;;9.50;7.25;;;;;17.41;33.15;97894.13;4823649;28;102365;-53
2022/03/29 01:12:43;;;;;;;;;7.00;6.50;;;;;17.42;33.10;97876.66;4834511;28;103564;-53
2022/03/29 01:15:11;;;;;;;;;5.75;5.75;;;;;17.42;32.77;97878.56;4833361;28;102117;-54
2022/03/29 01:17:38;;;;;;;;;8.25;7.25;;;;;17.40;33.30;97887.00;4831121;28;104121;-53
2022/03/29 01:20:11;;;;;;;;;7.50;6.75;;;;;17.42;32.67;97882.13;4829287;28;104826;-53
2022/03/29 01:22:40;;;;;;;;;7.25;7.00;;;;;17.42;32.69;97873.09;4833927;28;102485;-53
2022/03/29 01:25:08;;;;;;;;;6.00;6.00;;;;;17.41;32.83;97853.16;4839032;28;102185;-53
2022/03/29 01:27:36;;;;;;;;;7.00;6.50;;;;;17.39;33.09;97839.72;4832487;28;104373;-53
2022/03/29 01:30:03;;;;;;;;;10.00;6.00;;;;;17.40;33.59;97840.56;4813692;28;102158;-54
2022/03/29 01:32:31;;;;;;;;;7.00;6.00;;;;;17.41;33.28;97847.69;4836306;28;102205;-53
2022/03/29 01:34:58;;;;;;;;;6.00;5.50;;;;;17.41;33.37;97836.75;4834493;28;102230;-53
2022/03/29 01:37:25;;;;;;;;;6.75;6.50;;;;;17.39;32.91;97844.38;4835896;28;105511;-53
2022/03/29 01:39:53;;;;;;;;;7.50;7.00;;;;;17.38;33.54;97837.28;4837118;28;104708;-53
2022/03/29 01:42:20;;;;;;;;;6.75;6.75;;;;;17.38;33.17;97831.81;4832781;28;102306;-53
2022/03/29 01:44:47;;;;;;;;;6.25;6.25;;;;;17.36;33.78;97831.25;4831924;28;102270;-53
2022/03/29 01:47:19;;;;;;;;;7.00;6.00;;;;;17.37;32.60;97825.53;4830401;28;105487;-53
2022/03/29 01:49:47;;;;;;;;;7.25;7.25;;;;;17.39;33.31;97827.97;4830111;28;102558;-53
2022/03/29 01:52:14;;;;;;;;;7.75;7.00;;;;;17.38;33.33;97820.88;4834132;28;102481;-53
2022/03/29 01:54:41;;;;;;;;;7.50;6.25;;;;;17.38;32.79;97820.88;4836606;28;102623;-53
2022/03/29 01:57:09;;;;;;;;;9.75;7.00;;;;;17.37;32.45;97800.94;4833683;28;104308;-53
2022/03/29 02:02:22;;;;;;;;;7.00;6.25;;;;;17.36;32.39;97803.91;4833309;28;102634;-53
2022/03/29 02:04:49;;;;;;;;;9.00;5.00;;;;;17.36;33.10;97806.66;4837752;28;102098;-53
2022/03/29 02:07:16;;;;;;;;;5.75;5.75;;;;;17.36;32.87;97801.19;4838663;28;104043;-53
2022/03/29 02:09:44;;;;;;;;;8.00;6.00;;;;;17.36;33.19;97812.13;4838629;28;102377;-53
2022/03/29 02:12:12;;;;;;;;;7.00;6.00;;;;;17.36;32.99;97803.91;4841343;28;102417;-53
2022/03/29 02:14:39;;;;;;;;;7.50;6.75;;;;;17.36;33.55;97806.66;4845360;28;102200;-53
2022/03/29 02:17:06;;;;;;;;;7.00;6.25;;;;;17.35;33.37;97810.47;4835049;28;104243;-53
2022/03/29 02:19:33;;;;;;;;;5.00;5.00;;;;;17.35;33.37;97799.53;4836006;28;104148;-58
2022/03/29 02:22:00;;;;;;;;;8.75;6.00;;;;;17.34;32.83;97809.63;4841617;28;102255;-53
2022/03/29 02:24:28;;;;;;;;;5.75;5.00;;;;;17.34;33.17;97803.34;4835767;28;102400;-53
2022/03/29 02:26:55;;;;;;;;;4.00;4.00;;;;;17.34;33.44;97811.53;4841638;28;104067;-53
2022/03/29 02:29:22;;;;;;;;;7.75;6.25;;;;;17.32;33.65;97806.34;4842021;28;102292;-53
2022/03/29 02:31:49;;;;;;;;;9.25;6.50;;;;;17.33;33.47;97775.22;4840270;28;102193;-53
2022/03/29 02:34:16;;;;;;;;;5.25;4.75;;;;;17.33;33.10;97763.47;4851463;28;102209;-54
2022/03/29 02:36:43;;;;;;;;;7.25;6.00;;;;;17.33;33.43;97763.47;4838344;28;104080;-53
2022/03/29 02:39:10;;;;;;;;;8.00;6.25;;;;;17.33;33.70;97774.41;4840230;28;102470;-53
2022/03/29 02:41:37;;;;;;;;;8.00;6.00;;;;;17.32;32.85;97772.75;4843930;28;102118;-53
2022/03/29 02:44:05;;;;;;;;;6.75;6.50;;;;;17.32;33.57;97780.94;4842378;28;102213;-53
2022/03/29 02:46:33;;;;;;;;;8.50;6.00;;;;;17.30;33.65;97791.28;4835419;28;104077;-53
2022/03/29 02:49:01;;;;;;;;;5.50;4.75;;;;;17.31;33.05;97799.25;4840099;28;102086;-53
2022/03/29 02:51:28;;;;;;;;;4.00;4.00;;;;;17.32;33.43;97800.06;4839625;28;102519;-53
2022/03/29 02:53:55;;;;;;;;;8.75;7.00;;;;;17.31;33.69;97806.59;4839733;28;102430;-53
2022/03/29 02:56:22;;;;;;;;;4.00;4.00;;;;;17.30;32.97;97813.97;4838559;28;104128;-53
2022/03/29 02:58:49;;;;;;;;;6.00;5.25;;;;;17.31;32.98;97809.34;4843408;28;102492;-53
2022/03/29 03:01:18;;;;;;;;;7.00;6.75;;;;;17.30;33.08;97808.50;4836525;28;102468;-53
2022/03/29 03:03:45;;;;;;;;;6.75;6.75;;;;;17.30;32.93;97802.22;4837055;28;102689;-53
2022/03/29 03:06:12;;;;;;;;;6.00;6.00;;;;;17.30;33.32;97794.03;4837661;28;104222;-53
2022/03/29 03:08:39;;;;;;;;;8.00;6.25;;;;;17.30;33.23;97785.84;4839408;28;103522;-53
2022/03/29 03:11:06;;;;;;;;;8.00;7.25;;;;;17.30;33.58;97783.09;4837624;28;102400;-53
2022/03/29 03:13:35;;;;;;;;;6.75;6.00;;;;;17.30;34.00;97802.22;4841856;28;102209;-54
2022/03/29 03:16:02;;;;;;;;;7.00;6.00;;;;;17.28;33.04;97791.59;4840143;28;104086;-53
2022/03/29 03:18:29;;;;;;;;;5.50;5.50;;;;;17.28;33.30;97802.50;4837896;28;102200;-53
2022/03/29 03:20:56;;;;;;;;;8.25;6.25;;;;;17.28;33.82;97793.50;4837546;28;103044;-53
2022/03/29 03:23:24;;;;;;;;;8.00;6.75;;;;;17.28;33.40;97786.13;4836117;28;102772;-53
2022/03/29 03:25:51;;;;;;;;;8.50;7.00;;;;;17.27;33.18;97781.72;4834448;28;104108;-53
2022/03/29 03:28:18;;;;;;;;;6.00;5.75;;;;;17.26;33.30;97785.53;4838949;28;102833;-54
2022/03/29 03:30:46;;;;;;;;;5.50;5.00;;;;;17.26;33.74;97779.25;4836676;28;102309;-53
2022/03/29 03:33:13;;;;;;;;;5.00;5.00;;;;;17.24;33.08;97781.44;4839813;28;102212;-53
2022/03/29 03:35:40;;;;;;;;;6.75;6.00;;;;;17.24;33.58;97787.72;4835980;28;104140;-53
2022/03/29 03:38:08;;;;;;;;;6.00;5.25;;;;;17.25;33.60;97783.06;4835751;28;102161;-53
2022/03/29 03:40:35;;;;;;;;;7.00;6.75;;;;;17.24;33.31;97775.97;4835105;28;102602;-56
2022/03/29 03:43:03;;;;;;;;;7.00;6.25;;;;;17.25;33.71;97783.06;4839539;28;102482;-53
2022/03/29 03:45:30;;;;;;;;;8.00;7.25;;;;;17.25;33.20;97783.06;4832013;28;105346;-53
2022/03/29 03:47:57;;;;;;;;;5.00;4.50;;;;;17.24;32.97;97786.91;4842541;28;102792;-53
2022/03/29 03:50:24;;;;;;;;;7.00;6.75;;;;;17.22;33.16;97798.09;4831899;28;103257;-52
2022/03/29 03:52:53;;;;;;;;;6.25;5.00;;;;;17.23;33.52;97802.47;4834615;28;102479;-53
2022/03/29 03:55:21;;;;;;;;;7.25;7.00;;;;;17.18;32.73;97805.16;4833643;28;104100;-53
2022/03/29 03:57:48;;;;;;;;;6.75;5.00;;;;;17.23;33.12;97812.56;4834663;28;102832;-53
2022/03/29 04:00:16;;;;;;;;;4.50;4.50;;;;;17.22;33.39;97810.91;4834048;28;103888;-53
2022/03/29 04:02:43;;;;;;;;;7.00;5.50;;;;;17.20;33.79;97810.38;4837679;28;102732;-53
2022/03/29 04:05:12;;;;;;;;;6.75;5.25;;;;;17.20;33.51;97807.66;4837688;28;105214;-53
2022/03/29 04:07:39;;;;;;;;;6.50;5.50;;;;;17.20;33.52;97799.44;4835341;28;102320;-54
2022/03/29 04:10:07;;;;;;;;;6.50;6.25;;;;;17.17;34.08;97787.13;4839093;28;102430;-54
2022/03/29 04:12:35;;;;;;;;;7.00;7.00;;;;;17.19;33.38;97790.44;4843194;28;102160;-53
2022/03/29 04:15:06;;;;;;;;;6.00;6.00;;;;;17.19;33.36;97789.59;4832017;28;109464;-53
2022/03/29 04:17:33;;;;;;;;;7.00;6.00;;;;;17.19;33.45;97784.13;4836652;28;102736;-53
2022/03/29 04:20:01;;;;;;;;;5.75;5.75;;;;;17.18;33.09;97777.84;4837151;28;102236;-53
2022/03/29 04:22:28;;;;;;;;;7.00;6.00;;;;;17.18;33.30;97783.31;4839232;28;104216;-53
2022/03/29 04:24:55;;;;;;;;;8.25;7.50;;;;;17.17;32.99;97776.19;4836646;28;104127;-53
2022/03/29 04:27:22;;;;;;;;;6.00;6.00;;;;;17.17;33.90;97775.38;4837657;28;102089;-54
2022/03/29 04:29:49;;;;;;;;;7.00;6.25;;;;;17.19;33.48;97789.59;4839453;28;102469;-53
2022/03/29 04:32:16;;;;;;;;;6.75;6.00;;;;;17.16;33.12;97799.13;4833140;28;103937;-53
2022/03/29 04:34:45;;;;;;;;;9.25;7.25;;;;;17.17;33.69;97786.28;4832934;28;104116;-53
2022/03/29 04:37:12;;;;;;;;;5.00;4.00;;;;;17.15;33.31;97783.84;4836932;28;102416;-53
2022/03/29 04:39:39;;;;;;;;;6.75;6.75;;;;;17.15;33.48;97783.03;4836825;28;102775;-53
2022/03/29 04:42:06;;;;;;;;;7.50;7.00;;;;;17.15;33.89;97777.56;4840320;28;103085;-54
2022/03/29 04:44:35;;;;;;;;;7.00;6.75;;;;;17.13;33.71;97777.81;4836100;28;104183;-53
2022/03/29 04:47:05;;;;;;;;;5.00;5.00;;;;;17.14;33.50;97768.53;4838518;28;102172;-53
2022/03/29 04:49:34;;;;;;;;;5.25;5.25;;;;;17.13;34.07;97768.78;4793366;28;102854;-53
2022/03/29 04:52:06;;;;;;;;;6.75;6.00;;;;;17.13;33.25;97764.16;4824450;28;103853;-53
2022/03/29 04:54:57;;;;;;;;;6.00;6.00;;;;;17.13;33.15;97763.31;4808483;28;108568;-53
2022/03/29 04:57:24;;;;;;;;;6.75;6.75;;;;;17.13;34.04;97763.31;4819793;28;102340;-53
2022/03/29 04:59:51;;;;;;;;;8.00;6.50;;;;;17.13;33.32;97764.16;4792782;28;104237;-53
2022/03/29 05:02:18;;;;;;;;;10.75;8.75;;;;;17.13;33.51;97766.88;4832594;28;102610;-53
2022/03/29 05:04:45;;;;;;;;;6.00;5.50;;;;;17.13;33.66;97768.78;4834638;28;104089;-53
2022/03/29 05:07:12;;;;;;;;;5.75;5.25;;;;;17.13;33.29;97768.78;4833206;28;102840;-53
2022/03/29 05:09:39;;;;;;;;;7.00;5.75;;;;;17.10;33.97;97759.22;4802054;28;102777;-54
2022/03/29 05:12:06;;;;;;;;;7.75;7.00;;;;;17.09;34.03;97768.50;4833752;28;104095;-54
2022/03/29 05:14:34;;;;;;;;;6.25;6.25;;;;;17.08;33.12;97774.22;4837364;28;104125;-53
2022/03/29 05:17:02;;;;;;;;;9.75;8.25;;;;;17.07;33.51;97775.28;4833984;28;102237;-53
2022/03/29 05:19:29;;;;;;;;;6.25;6.00;;;;;17.06;33.31;97779.97;4835949;28;102247;-53
2022/03/29 05:21:56;;;;;;;;;5.75;4.00;;;;;17.05;33.42;97791.97;4831402;28;103607;-53
2022/03/29 05:24:23;;;;;;;;;5.50;5.50;;;;;17.05;33.79;97782.94;4851510;28;104205;-53
2022/03/29 05:26:50;;;;;;;;;7.75;6.50;;;;;17.05;33.73;97777.47;4832806;28;102605;-53
2022/03/29 05:29:18;;;;;;;;;8.00;7.00;;;;;17.03;34.35;97768.72;4833026;28;103265;-53
2022/03/29 05:31:45;;;;;;;;;8.75;7.00;;;;;17.03;33.83;97776.91;4836364;28;102312;-53
2022/03/29 05:34:13;;;;;;;;;6.00;6.00;;;;;17.03;33.82;97785.91;4834787;28;104264;-53
2022/03/29 05:36:44;;;;;;;;;8.00;6.00;;;;;17.03;33.55;97785.09;4836858;28;102347;-53
2022/03/29 05:39:13;;;;;;;;;7.75;7.50;;;;;17.02;34.03;97791.66;4835809;28;102221;-53
2022/03/29 05:41:41;;;;;;;;;7.00;7.00;;;;;17.03;33.80;97798.75;4840720;28;102338;-53
2022/03/29 05:44:08;;;;;;;;;5.75;5.75;;;;;17.03;33.46;97796.03;4841457;28;104079;-53
2022/03/29 05:49:21;;;;;;;;;10.00;7.75;;;;;17.02;33.87;97783.47;4834089;28;101980;-53
2022/03/29 05:51:49;;;;;;;;;8.75;7.50;;;;;17.00;34.11;97780.16;4842890;28;102713;-54
2022/03/29 05:54:17;;;;;;;;;9.00;8.00;;;;;17.00;33.90;97797.38;4832121;28;103986;-53
2022/03/29 05:56:44;;;;;;;;;6.00;6.00;;;;;17.00;34.40;97796.56;4854016;28;103137;-53
2022/03/29 05:59:11;;;;;;;;;10.00;8.00;;;;;17.00;34.43;97808.31;4836351;28;102175;-53
2022/03/29 06:01:38;;;;;;;;;7.50;7.00;;;;;17.00;34.46;97807.47;4839780;28;102769;-53
2022/03/29 06:04:07;;;;;;;;;8.00;7.00;;;;;16.99;33.55;97809.38;4836833;28;104069;-53
2022/03/29 06:06:36;;;;;;;;;7.00;7.00;;;;;17.01;34.25;97806.41;4840669;28;102062;-53
2022/03/29 06:09:04;;;;;;;;;6.00;5.75;;;;;16.98;34.39;97799.53;4838766;28;102387;-53
2022/03/29 06:11:31;;;;;;;;;6.75;6.00;;;;;16.99;34.37;97800.38;4837481;28;103933;-53
2022/03/29 06:13:58;;;;;;;;;8.00;7.75;;;;;16.99;34.83;97794.91;4847090;28;104829;-53
2022/03/29 06:16:25;;;;;;;;;7.75;6.75;;;;;16.99;34.54;97794.91;4828951;28;102444;-53
2022/03/29 06:18:52;;;;;;;;;9.75;8.25;;;;;16.99;34.39;97827.69;4837317;28;105491;-53
2022/03/29 06:21:21;;;;;;;;;8.00;7.00;;;;;16.99;34.72;97838.59;4843027;28;102578;-53
2022/03/29 06:23:48;;;;;;;;;6.50;6.00;;;;;17.00;34.22;97834.78;4839769;28;103561;-53
2022/03/29 06:26:16;;;;;;;;;8.50;6.00;;;;;17.00;34.71;97840.25;4839695;28;102599;-53
2022/03/29 06:28:43;;;;;;;;;6.50;6.00;;;;;16.98;34.71;97831.47;4839150;28;104993;-53
2022/03/29 06:31:10;;;;;;;;;7.50;6.75;;;;;16.98;35.21;97831.47;4835333;28;102334;-53
2022/03/29 06:33:37;;;;;;;;;7.75;7.00;;;;;16.98;34.42;97823.28;4846080;28;104212;-53
2022/03/29 06:36:04;;;;;;;;;7.75;7.75;;;;;16.98;34.80;97821.38;4831204;28;102562;-53
2022/03/29 06:38:31;;;;;;;;;8.50;6.75;;;;;16.97;35.02;97835.31;4839819;28;102431;-52
2022/03/29 06:40:59;;;;;;;;;8.00;7.00;;;;;16.95;35.09;97828.22;4849059;28;102463;-53
2022/03/29 06:43:26;;;;;;;;;7.75;6.25;;;;;16.98;34.39;97831.47;4839563;28;104121;-53
2022/03/29 06:45:53;;;;;;;;;6.50;6.00;;;;;16.98;34.50;97826.03;4843273;28;102267;-53
2022/03/29 06:48:20;;;;;;;;;9.50;9.25;;;;;16.98;35.37;97817.81;4836861;28;102116;-53
2022/03/29 06:50:47;;;;;;;;;8.75;7.25;;;;;16.99;35.09;97812.13;4837044;28;102129;-53
2022/03/29 06:53:14;;;;;;;;;6.50;6.00;;;;;16.99;34.30;97817.56;4836528;28;104293;-53
2022/03/29 06:55:41;;;;;;;;;6.75;6.75;;;;;17.00;34.37;97811.03;4837426;28;102580;-53
2022/03/29 06:58:08;;;;;;;;;9.50;6.50;;;;;17.01;35.19;97811.88;4838364;28;102979;-53
2022/03/29 07:00:36;;;;;;;;;8.75;7.00;;;;;17.02;34.69;97810.78;4841862;28;102701;-53
2022/03/29 07:03:03;;;;;;;;;6.00;6.00;;;;;17.03;34.77;97812.41;4838137;28;109681;-53
2022/03/29 07:05:30;;;;;;;;;7.00;6.00;;;;;17.03;34.46;97806.94;4833383;28;102540;-53
2022/03/29 07:07:57;;;;;;;;;6.00;6.00;;;;;17.03;34.70;97809.69;4838013;28;102582;-53
2022/03/29 07:13:09;;;;;;;;;7.50;5.00;;;;;17.02;34.70;97800.66;4831314;28;109575;-53
2022/03/29 07:15:36;;;;;;;;;6.75;6.00;;;;;17.03;35.16;97805.03;4837474;28;102548;-53
2022/03/29 07:18:04;;;;;;;;;9.50;8.25;;;;;17.04;34.84;97808.59;4838786;28;102142;-53
2022/03/29 07:20:31;;;;;;;;;10.75;7.00;;;;;17.04;34.84;97809.44;4841460;28;102185;-53
2022/03/29 07:22:58;;;;;;;;;7.00;6.50;;;;;17.05;34.68;97797.44;4834860;28;104082;-55
2022/03/29 07:25:27;;;;;;;;;8.50;7.00;;;;;17.06;34.74;97806.44;4841544;28;102315;-53
2022/03/29 07:27:54;;;;;;;;;5.50;5.00;;;;;17.06;34.61;97800.97;4836494;28;102320;-53
2022/03/29 07:30:21;;;;;;;;;6.75;5.25;;;;;17.07;34.53;97803.44;4854418;28;102699;-53
2022/03/29 07:32:50;;;;;;;;;6.25;6.00;;;;;17.09;34.86;97814.09;4841897;28;104090;-53
2022/03/29 07:35:18;;;;;;;;;7.00;7.00;;;;;17.09;34.83;97801.28;4837901;28;102170;-53
2022/03/29 07:37:45;;;;;;;;;5.50;5.50;;;;;17.12;34.68;97805.38;4837368;28;102186;-53
2022/03/29 07:40:16;;;;;;;;;6.50;5.75;;;;;17.13;34.29;97807.03;4840374;28;102576;-53
2022/03/29 07:42:43;;;;;;;;;5.50;5.50;;;;;17.14;35.14;97808.69;4846170;28;105255;-53
2022/03/29 07:45:11;;;;;;;;;6.00;6.00;;;;;17.14;34.97;97808.69;4837287;28;102637;-53
2022/03/29 07:47:41;;;;;;;;;8.25;7.00;;;;;17.16;35.21;97818.25;4851982;28;102321;-53
2022/03/29 07:50:28;;;;;;;;;6.00;6.00;;;;;17.17;34.94;97805.41;4830686;28;103223;-53
2022/03/29 07:53:03;;;;;;;;;9.00;6.25;;;;;17.18;35.46;97807.91;4832416;28;104081;-53
2022/03/29 07:55:30;;;;;;;;;10.00;8.00;;;;;17.18;34.52;97794.25;4840455;28;102177;-53
2022/03/29 07:58:09;;;;;;;;;6.75;6.75;;;;;17.19;35.24;97795.88;4837120;28;102139;-55
2022/03/29 08:00:36;;;;;;;;;6.00;5.75;;;;;17.20;34.86;97796.72;4840451;28;102463;-53
2022/03/29 08:03:04;;;;;;;;;8.00;7.00;;;;;17.22;34.56;97800.00;4836262;28;112051;-53
2022/03/29 08:05:32;;;;;;;;;7.75;6.00;;;;;17.24;34.75;97800.56;4829769;28;104349;-53
2022/03/29 08:07:59;;;;;;;;;8.25;5.25;;;;;17.24;35.16;97793.19;4832879;28;102207;-53
2022/03/29 08:10:28;;;;;;;;;5.50;5.50;;;;;17.24;34.59;97781.44;4833526;28;102319;-53
2022/03/29 08:12:59;;;;;;;;;6.00;6.00;;;;;17.27;35.44;97786.38;4832769;28;104051;-53
2022/03/29 08:15:27;;;;;;;;;8.25;7.50;;;;;17.26;34.89;97785.53;4838510;28;102315;-53
2022/03/29 08:17:58;;;;;;;;;7.00;6.75;;;;;17.26;34.49;97784.72;4833301;28;102530;-53
2022/03/29 08:20:26;;;;;;;;;6.00;6.00;;;;;17.27;34.75;97789.09;4835531;28;102511;-53
2022/03/29 08:22:56;;;;;;;;;6.00;6.00;;;;;17.28;34.31;97798.94;4836380;28;104231;-53
2022/03/29 08:25:23;;;;;;;;;7.50;6.75;;;;;17.28;35.35;97798.94;4834545;28;102189;-53
2022/03/29 08:27:50;;;;;;;;;7.50;6.50;;;;;17.28;35.15;97791.59;4838815;28;102112;-53
2022/03/29 08:30:16;;;;;;;;;6.25;6.00;;;;;17.29;34.52;97795.13;4832022;28;102440;-52
2022/03/29 08:32:44;;;;;;;;;6.00;6.00;;;;;17.29;34.79;97795.13;4836448;28;104079;-53
2022/03/29 08:35:12;;;;;;;;;6.00;5.00;;;;;17.22;34.92;97789.88;4836369;28;102235;-53
2022/03/29 08:37:40;;;;;;;;;6.00;6.00;;;;;17.31;34.86;97803.88;4839405;28;102516;-52
2022/03/29 08:40:13;;;;;;;;;8.25;7.75;;;;;17.31;34.47;97799.25;4840793;28;102537;-53
2022/03/29 08:42:42;;;;;;;;;6.25;6.00;;;;;17.32;35.04;97794.59;4813776;28;108785;-53
2022/03/29 08:45:10;;;;;;;;;7.00;5.50;;;;;17.33;35.58;97791.63;4837713;28;102315;-53
2022/03/29 08:47:40;;;;;;;;;7.75;7.00;;;;;17.34;35.15;97789.69;4836835;28;102280;-53
2022/03/29 08:50:08;;;;;;;;;6.00;5.50;;;;;17.34;34.46;97797.88;4840661;28;102191;-53
2022/03/29 08:52:35;;;;;;;;;7.25;6.25;;;;;17.34;34.60;97792.41;4827177;28;104075;-52
2022/03/29 08:55:03;;;;;;;;;7.25;7.00;;;;;17.33;35.55;97791.63;4833734;28;102678;-53
2022/03/29 08:57:30;;;;;;;;;9.50;6.75;;;;;17.36;34.38;97798.44;4819518;28;102608;-53
2022/03/29 08:59:57;;;;;;;;;7.75;7.00;;;;;17.36;34.64;97795.72;4839804;28;102269;-53
2022/03/29 09:02:25;;;;;;;;;6.25;6.00;;;;;17.36;35.02;97792.97;4830453;28;103990;-53
2022/03/29 09:05:17;;;;;;;;;5.25;5.00;;;;;17.37;35.01;97791.91;4831829;28;102229;-52
2022/03/29 09:07:59;;;;;;;;;6.00;6.00;;;;;17.37;34.64;97780.97;4835809;28;102359;-53
2022/03/29 09:10:48;;;;;;;;;7.00;6.00;;;;;17.37;35.28;97776.34;4840957;28;102491;-53
2022/03/29 09:13:27;;;;;;;;;6.00;5.50;;;;;17.38;35.24;97786.16;4834293;28;108746;-53
2022/03/29 09:15:57;;;;;;;;;7.00;6.25;;;;;17.39;35.34;97781.50;4820927;28;102521;-53
2022/03/29 09:18:25;;;;;;;;;5.75;4.75;;;;;17.40;35.44;97772.22;4832271;28;102478;-53
2022/03/29 09:21:15;;;;;;;;;6.00;6.00;;;;;17.42;35.00;97773.59;4839807;28;102462;-53
2022/03/29 09:23:43;;;;;;;;;8.00;6.00;;;;;17.42;34.74;97781.00;4841863;28;108981;-53
2022/03/29 09:26:26;;;;;;;;;4.25;4.00;;;;;17.42;34.57;97778.28;4852879;28;102402;-53
2022/03/29 09:28:53;;;;;;;;;6.75;4.75;;;;;17.45;35.08;97777.72;4838552;28;102127;-53
2022/03/29 09:31:25;;;;;;;;;5.75;5.75;;;;;17.44;34.51;97769.78;4843859;28;102236;-53
2022/03/29 09:33:58;;;;;;;;;6.25;5.00;;;;;17.44;35.25;97767.06;4844906;28;104241;-53
2022/03/29 09:36:25;;;;;;;;;6.00;5.00;;;;;17.43;34.98;97763.50;4817537;28;102609;-53
2022/03/29 09:38:56;;;;;;;;;6.00;5.00;;;;;17.45;35.43;97769.53;4837297;28;102033;-53
2022/03/29 09:41:29;;;;;;;;;5.25;5.25;;;;;17.46;34.50;97767.63;4858829;28;103121;-53
2022/03/29 09:44:10;;;;;;;;;6.25;5.00;;;;;17.46;35.57;97765.72;4839432;28;104360;-53
2022/03/29 09:46:54;;;;;;;;;6.25;5.00;;;;;17.46;34.77;97754.78;4839458;28;102241;-54
2022/03/29 09:49:22;;;;;;;;;6.00;5.25;;;;;17.47;34.49;97753.69;4838908;28;102299;-53
2022/03/29 09:52:11;;;;;;;;;5.75;4.75;;;;;17.48;34.86;97759.97;4855482;28;102380;-53
2022/03/29 09:54:38;;;;;;;;;4.00;4.00;;;;;17.48;35.49;97760.78;4834584;28;109071;-53
2022/03/29 09:57:05;;;;;;;;;4.25;4.25;;;;;17.50;35.71;97768.75;4836536;28;102579;-53
2022/03/29 09:59:32;;;;;;;;;4.00;4.00;;;;;17.49;35.72;97756.16;4841588;28;102300;-53
2022/03/29 10:02:00;;;;;;;;;6.50;5.00;;;;;17.49;35.19;97756.97;4864523;28;102160;-53
2022/03/29 10:04:29;;;;;;;;;6.00;5.50;;;;;17.50;35.21;97749.59;4832898;28;104076;-53
2022/03/29 10:06:57;;;;;;;;;5.50;4.00;;;;;17.50;35.76;97753.16;4831134;28;102377;-53
2022/03/29 10:09:30;;;;;;;;;4.75;4.75;;;;;17.50;34.52;97750.44;4835025;28;102453;-53
2022/03/29 10:12:04;;;;;;;;;6.00;5.00;;;;;17.50;34.95;97755.91;4839075;28;102264;-53
2022/03/29 10:14:40;;;;;;;;;6.75;5.25;;;;;17.51;35.11;97749.34;4832024;28;104022;-53
2022/03/29 10:17:08;;;;;;;;;5.25;4.00;;;;;17.52;34.87;97750.97;4838595;28;102011;-53
2022/03/29 10:19:36;;;;;;;;;7.75;5.00;;;;;17.53;34.83;97744.41;4840881;28;102562;-53
2022/03/29 10:22:04;;;;;;;;;5.00;4.00;;;;;17.52;35.90;97740.03;4826061;28;102331;-53
2022/03/29 10:24:31;;;;;;;;;5.00;5.00;;;;;17.53;35.38;97733.50;4835637;28;104182;-53
2022/03/29 10:27:00;;;;;;;;;5.50;4.75;;;;;17.54;35.07;97731.56;4837659;28;102489;-53
2022/03/29 10:29:27;;;;;;;;;4.00;4.00;;;;;17.55;35.55;97727.75;4836490;28;102482;-53
2022/03/29 10:32:01;;;;;;;;;3.75;3.75;;;;;17.56;35.53;97726.69;4839597;28;102306;-53
2022/03/29 10:34:30;;;;;;;;;6.00;3.50;;;;;17.57;34.88;97720.94;4831563;28;104058;-53
2022/03/29 10:37:07;;;;;;;;;7.00;5.75;;;;;17.59;35.09;97717.97;4835951;28;102865;-53
2022/03/29 10:40:12;;;;;;;;;5.00;5.00;;;;;17.59;35.47;97716.06;4835729;28;103453;-53
2022/03/29 10:42:44;;;;;;;;;5.00;4.50;;;;;17.60;34.50;97709.50;4836668;28;103656;-53
2022/03/29 10:45:25;;;;;;;;;4.75;4.00;;;;;17.62;34.46;97706.50;4833943;28;109092;-57
2022/03/29 10:47:59;;;;;;;;;7.25;5.00;;;;;17.62;35.38;97701.84;4838932;28;102653;-53
2022/03/29 10:50:55;;;;;;;;;5.50;4.25;;;;;17.62;35.32;97701.84;4848324;28;102209;-53
2022/03/29 10:53:22;;;;;;;;;5.00;4.50;;;;;17.63;35.08;97692.56;4837132;28;104082;-53
2022/03/29 10:56:08;;;;;;;;;5.25;5.00;;;;;17.63;35.52;97695.28;4832096;28;104099;-53
2022/03/29 10:58:35;;;;;;;;;5.00;4.25;;;;;17.65;36.01;97689.56;4839112;28;102109;-53
2022/03/29 11:01:12;;;;;;;;;4.00;4.00;;;;;17.64;35.62;97683.28;4838003;28;102257;-53
2022/03/29 11:04:00;;;;;;;;;3.00;3.00;;;;;17.66;35.36;97685.72;4848214;28;102461;-53
2022/03/29 11:06:28;;;;;;;;;4.00;4.00;;;;;17.66;35.20;97692.00;4824305;28;108861;-53
2022/03/29 11:09:08;;;;;;;;;7.00;5.00;;;;;17.67;34.94;97682.72;4817432;28;102441;-53
2022/03/29 11:11:40;;;;;;;;;6.50;5.00;;;;;17.68;35.65;97678.91;4834283;28;102428;-53
2022/03/29 11:14:36;;;;;;;;;5.75;3.75;;;;;17.69;35.41;97688.75;4837253;28;102956;-53
2022/03/29 11:17:09;;;;;;;;;4.00;4.00;;;;;17.70;35.53;97679.44;4835614;28;108849;-53
2022/03/29 11:19:48;;;;;;;;;3.25;3.25;;;;;17.71;35.44;97678.38;4840563;28;102268;-53
2022/03/29 11:22:21;;;;;;;;;5.25;4.75;;;;;17.72;35.93;97677.28;4830750;28;102215;-53
2022/03/29 11:24:49;;;;;;;;;6.25;4.75;;;;;17.72;34.95;97669.06;4830327;28;102636;-53
2022/03/29 11:27:23;;;;;;;;;4.00;4.00;;;;;17.73;35.09;97675.38;4832032;28;104085;-53
2022/03/29 11:29:50;;;;;;;;;3.50;3.50;;;;;17.73;35.59;97670.72;4832138;28;102043;-53
2022/03/29 11:32:17;;;;;;;;;5.00;4.00;;;;;17.73;35.48;97665.25;4843936;28;103965;-53
2022/03/29 11:34:45;;;;;;;;;4.00;4.00;;;;;17.74;34.97;97661.41;4835209;28;102614;-53
2022/03/29 11:37:28;;;;;;;;;5.00;4.50;;;;;17.74;35.33;97658.66;4826717;28;104081;-53
2022/03/29 11:39:56;;;;;;;;;4.75;3.75;;;;;17.76;35.49;97653.78;4830617;28;102212;-53
2022/03/29 11:42:23;;;;;;;;;5.00;4.00;;;;;17.78;35.04;97651.59;4843098;28;102265;-53